Praga, Češka

11:30 PM CEST on april 23, 2018 (GMT +0200)
Malvazinky, Prague | | Change Station

Viš 951 ft 50.07 °N, 14.38 °E | Updated 21 seconds ago

Delno oblacno
Delno oblacno
59.4 °F
Feels Like 59.4 °F
N
0.9
Veter Spremenljivo Veter od Vzhod
Gusts 2.0 mph

Danes
High -- | Low -- °F
--% Chance of Precip.
Yesterday
High -- | Low -- °F
Precip. -- v
Zračni tlak 29.98 v
Vidljivost -9999.0 milje
Oblaki
Rosišče 55 °F
Vlažnost 87%
Padavine 0.07 v
Snow Depth Not available.
5:53 AM 8:08 PM
Prvo četrtletje, 61% visible
METAR LKPR 232100Z 00000KT CAVOK 13/12 Q1015 NOSIG
Zračni tlak 29.98 v
Vidljivost -9999.0 milje
Oblaki
Rosišče 55 °F
Vlažnost 87%
Padavine 0.07 v
Snow Depth Not available.
5:53 AM 8:08 PM
Prvo četrtletje, 61% visible
METAR LKPR 232100Z 00000KT CAVOK 13/12 Q1015 NOSIG

Get Severe Weather Alerts

Thanks for signing up!

Be on the lookout for a verification email in your inbox.

You'll start receiving the daily forecast at 6 AM.

×

10-Day Weather Forecast

×

Almanac

Astronomija

Apr. 23, 2018 Rise Set
Actual Time
Civil Twilight
Nautical Twilight
Astronomical Twilight
Moon
Length Of Visible Light
Dolžina dneva
Tomorrow will be .
, % of the Moon is Illuminated

Današnji ekstremi

Country Highs Country Lows

Community

WunderPhotos

Category 6

Welcome to Category 6. This is the collective home for Weather Underground's featured writeups by Dr. Jeff Masters (right), Bob Henson (left), Chris Burt, and other regular contributors.

Nearby

Air Quality

  Air Quality AQ Index Pollutant
Not available.

Snow Depth

Station Depth Višina

Earthquake Activity

City Distance Mag. Time & Date
Minimum magnitude displayed is 2.5.

Coastal Water Temperatures

Mesto Temperatura

Stations

Nearby Weather Stations

Station Location Temp Občutek zaradi vetra Rosišče Vlažnost Veter Precip. Viš Obnovljeno Type